sensor_id;sensor_type;location;lat;lon;timestamp;P1;durP1;ratioP1;P2;durP2;ratioP2
45065;SDS011;30830;53.704;10.004;2022-09-24T00:00:44;8.07;;;6.50;;
45065;SDS011;30830;53.704;10.004;2022-09-24T00:03:12;10.60;;;6.65;;
45065;SDS011;30830;53.704;10.004;2022-09-24T00:05:38;7.88;;;6.93;;
45065;SDS011;30830;53.704;10.004;2022-09-24T00:08:05;7.03;;;6.38;;
45065;SDS011;30830;53.704;10.004;2022-09-24T00:10:41;6.75;;;6.05;;
45065;SDS011;30830;53.704;10.004;2022-09-24T00:13:10;6.88;;;6.18;;
45065;SDS011;30830;53.704;10.004;2022-09-24T00:15:39;6.70;;;6.03;;
45065;SDS011;30830;53.704;10.004;2022-09-24T00:18:15;8.35;;;6.57;;
45065;SDS011;30830;53.704;10.004;2022-09-24T00:20:42;8.05;;;6.55;;
45065;SDS011;30830;53.704;10.004;2022-09-24T00:23:08;7.43;;;6.55;;
45065;SDS011;30830;53.704;10.004;2022-09-24T00:25:41;8.00;;;6.85;;
45065;SDS011;30830;53.704;10.004;2022-09-24T00:28:27;7.20;;;6.47;;
45065;SDS011;30830;53.704;10.004;2022-09-24T00:30:53;6.88;;;6.18;;
45065;SDS011;30830;53.704;10.004;2022-09-24T00:33:18;7.80;;;7.00;;
45065;SDS011;30830;53.704;10.004;2022-09-24T00:35:45;11.60;;;7.35;;
45065;SDS011;30830;53.704;10.004;2022-09-24T00:38:10;10.48;;;7.00;;
45065;SDS011;30830;53.704;10.004;2022-09-24T00:40:36;7.57;;;6.32;;
45065;SDS011;30830;53.704;10.004;2022-09-24T00:45:53;7.93;;;6.97;;
45065;SDS011;30830;53.704;10.004;2022-09-24T00:48:31;7.03;;;6.32;;
45065;SDS011;30830;53.704;10.004;2022-09-24T00:50:58;8.63;;;6.40;;
45065;SDS011;30830;53.704;10.004;2022-09-24T00:53:25;6.90;;;6.22;;
45065;SDS011;30830;53.704;10.004;2022-09-24T00:55:56;9.32;;;7.28;;
45065;SDS011;30830;53.704;10.004;2022-09-24T00:58:23;8.23;;;7.43;;
45065;SDS011;30830;53.704;10.004;2022-09-24T01:00:50;8.48;;;7.35;;
45065;SDS011;30830;53.704;10.004;2022-09-24T01:03:22;11.65;;;7.00;;
45065;SDS011;30830;53.704;10.004;2022-09-24T01:05:49;7.70;;;6.63;;
45065;SDS011;30830;53.704;10.004;2022-09-24T01:08:16;8.18;;;7.22;;
45065;SDS011;30830;53.704;10.004;2022-09-24T01:16:56;6.38;;;5.78;;
45065;SDS011;30830;53.704;10.004;2022-09-24T01:22:28;7.32;;;6.40;;
45065;SDS011;30830;53.704;10.004;2022-09-24T01:25:25;7.75;;;6.53;;
45065;SDS011;30830;53.704;10.004;2022-09-24T01:28:35;8.93;;;7.75;;
45065;SDS011;30830;53.704;10.004;2022-09-24T01:31:24;8.00;;;6.47;;
45065;SDS011;30830;53.704;10.004;2022-09-24T01:33:55;6.90;;;6.22;;
45065;SDS011;30830;53.704;10.004;2022-09-24T01:36:23;9.38;;;6.82;;
45065;SDS011;30830;53.704;10.004;2022-09-24T01:38:52;8.80;;;7.13;;
45065;SDS011;30830;53.704;10.004;2022-09-24T01:41:18;7.00;;;6.30;;
45065;SDS011;30830;53.704;10.004;2022-09-24T01:43:45;9.27;;;8.05;;
45065;SDS011;30830;53.704;10.004;2022-09-24T01:46:12;8.73;;;7.10;;
45065;SDS011;30830;53.704;10.004;2022-09-24T01:48:40;8.98;;;7.22;;
45065;SDS011;30830;53.704;10.004;2022-09-24T01:53:46;10.32;;;7.70;;
45065;SDS011;30830;53.704;10.004;2022-09-24T01:59:11;9.40;;;6.85;;
45065;SDS011;30830;53.704;10.004;2022-09-24T02:01:42;8.05;;;7.13;;
45065;SDS011;30830;53.704;10.004;2022-09-24T02:04:15;10.35;;;7.57;;
45065;SDS011;30830;53.704;10.004;2022-09-24T02:06:51;7.10;;;6.40;;
45065;SDS011;30830;53.704;10.004;2022-09-24T02:11:57;9.50;;;7.22;;
45065;SDS011;30830;53.704;10.004;2022-09-24T02:14:31;8.95;;;7.05;;
45065;SDS011;30830;53.704;10.004;2022-09-24T02:17:01;9.43;;;8.52;;
45065;SDS011;30830;53.704;10.004;2022-09-24T02:19:28;8.30;;;7.30;;
45065;SDS011;30830;53.704;10.004;2022-09-24T02:21:57;8.73;;;6.80;;
45065;SDS011;30830;53.704;10.004;2022-09-24T02:24:45;7.68;;;6.68;;
45065;SDS011;30830;53.704;10.004;2022-09-24T02:27:11;9.48;;;8.50;;
45065;SDS011;30830;53.704;10.004;2022-09-24T02:29:37;8.50;;;7.10;;
45065;SDS011;30830;53.704;10.004;2022-09-24T02:32:03;7.68;;;6.78;;
45065;SDS011;30830;53.704;10.004;2022-09-24T02:34:34;8.70;;;7.57;;
45065;SDS011;30830;53.704;10.004;2022-09-24T02:37:05;7.85;;;7.00;;
45065;SDS011;30830;53.704;10.004;2022-09-24T02:39:35;9.10;;;7.57;;
45065;SDS011;30830;53.704;10.004;2022-09-24T02:42:02;8.93;;;7.72;;
45065;SDS011;30830;53.704;10.004;2022-09-24T02:44:30;8.73;;;7.47;;
45065;SDS011;30830;53.704;10.004;2022-09-24T02:46:56;13.18;;;7.63;;
45065;SDS011;30830;53.704;10.004;2022-09-24T02:49:22;11.00;;;8.13;;
45065;SDS011;30830;53.704;10.004;2022-09-24T02:51:47;7.50;;;6.75;;
45065;SDS011;30830;53.704;10.004;2022-09-24T02:54:13;7.80;;;7.00;;
45065;SDS011;30830;53.704;10.004;2022-09-24T02:56:39;8.15;;;6.93;;
45065;SDS011;30830;53.704;10.004;2022-09-24T02:59:05;8.95;;;6.85;;
45065;SDS011;30830;53.704;10.004;2022-09-24T03:01:31;8.32;;;7.47;;
45065;SDS011;30830;53.704;10.004;2022-09-24T03:03:58;9.50;;;7.18;;
45065;SDS011;30830;53.704;10.004;2022-09-24T03:06:24;10.80;;;7.88;;
45065;SDS011;30830;53.704;10.004;2022-09-24T03:08:50;8.15;;;6.93;;
45065;SDS011;30830;53.704;10.004;2022-09-24T03:11:17;7.90;;;7.10;;
45065;SDS011;30830;53.704;10.004;2022-09-24T03:13:45;9.85;;;6.97;;
45065;SDS011;30830;53.704;10.004;2022-09-24T03:16:11;8.40;;;7.13;;
45065;SDS011;30830;53.704;10.004;2022-09-24T03:18:36;8.50;;;6.93;;
45065;SDS011;30830;53.704;10.004;2022-09-24T03:21:04;9.60;;;7.57;;
45065;SDS011;30830;53.704;10.004;2022-09-24T03:23:32;8.00;;;7.20;;
45065;SDS011;30830;53.704;10.004;2022-09-24T03:25:59;8.27;;;7.47;;
45065;SDS011;30830;53.704;10.004;2022-09-24T03:28:24;8.32;;;7.47;;
45065;SDS011;30830;53.704;10.004;2022-09-24T03:30:50;9.27;;;7.72;;
45065;SDS011;30830;53.704;10.004;2022-09-24T03:33:29;7.45;;;6.72;;
45065;SDS011;30830;53.704;10.004;2022-09-24T03:36:04;7.57;;;6.82;;
45065;SDS011;30830;53.704;10.004;2022-09-24T03:38:34;9.10;;;8.10;;
45065;SDS011;30830;53.704;10.004;2022-09-24T03:41:00;9.70;;;7.90;;
45065;SDS011;30830;53.704;10.004;2022-09-24T03:43:26;7.95;;;6.57;;
45065;SDS011;30830;53.704;10.004;2022-09-24T03:45:52;8.10;;;7.20;;
45065;SDS011;30830;53.704;10.004;2022-09-24T03:48:19;8.55;;;6.72;;
45065;SDS011;30830;53.704;10.004;2022-09-24T03:50:46;7.20;;;6.55;;
45065;SDS011;30830;53.704;10.004;2022-09-24T03:53:12;8.55;;;7.65;;
45065;SDS011;30830;53.704;10.004;2022-09-24T03:55:45;7.50;;;6.68;;
45065;SDS011;30830;53.704;10.004;2022-09-24T03:58:13;12.10;;;8.23;;
45065;SDS011;30830;53.704;10.004;2022-09-24T04:00:40;8.15;;;7.22;;
45065;SDS011;30830;53.704;10.004;2022-09-24T04:03:06;7.55;;;6.60;;
45065;SDS011;30830;53.704;10.004;2022-09-24T04:05:32;8.15;;;6.55;;
45065;SDS011;30830;53.704;10.004;2022-09-24T04:07:59;7.93;;;6.78;;
45065;SDS011;30830;53.704;10.004;2022-09-24T04:10:24;6.72;;;6.05;;
45065;SDS011;30830;53.704;10.004;2022-09-24T04:12:50;10.18;;;7.32;;
45065;SDS011;30830;53.704;10.004;2022-09-24T04:15:16;8.45;;;7.20;;
45065;SDS011;30830;53.704;10.004;2022-09-24T04:17:49;7.80;;;7.10;;
45065;SDS011;30830;53.704;10.004;2022-09-24T04:20:16;8.05;;;7.25;;
45065;SDS011;30830;53.704;10.004;2022-09-24T04:22:45;8.85;;;7.28;;
45065;SDS011;30830;53.704;10.004;2022-09-24T04:25:10;7.30;;;6.60;;
45065;SDS011;30830;53.704;10.004;2022-09-24T04:27:36;8.60;;;7.82;;
45065;SDS011;30830;53.704;10.004;2022-09-24T04:30:03;8.00;;;7.25;;
45065;SDS011;30830;53.704;10.004;2022-09-24T04:32:29;7.93;;;7.20;;
45065;SDS011;30830;53.704;10.004;2022-09-24T04:34:55;10.63;;;7.90;;
45065;SDS011;30830;53.704;10.004;2022-09-24T04:37:20;9.27;;;8.27;;
45065;SDS011;30830;53.704;10.004;2022-09-24T04:39:46;10.35;;;8.00;;
45065;SDS011;30830;53.704;10.004;2022-09-24T04:42:17;9.23;;;7.55;;
45065;SDS011;30830;53.704;10.004;2022-09-24T04:44:43;8.68;;;7.78;;
45065;SDS011;30830;53.704;10.004;2022-09-24T04:47:15;10.88;;;8.95;;
45065;SDS011;30830;53.704;10.004;2022-09-24T04:49:42;10.38;;;8.05;;
45065;SDS011;30830;53.704;10.004;2022-09-24T04:52:10;8.23;;;7.43;;
45065;SDS011;30830;53.704;10.004;2022-09-24T04:54:39;11.05;;;8.70;;
45065;SDS011;30830;53.704;10.004;2022-09-24T04:57:06;9.93;;;8.30;;
45065;SDS011;30830;53.704;10.004;2022-09-24T04:59:32;8.98;;;8.07;;
45065;SDS011;30830;53.704;10.004;2022-09-24T05:01:57;9.02;;;8.13;;
45065;SDS011;30830;53.704;10.004;2022-09-24T05:04:23;9.23;;;8.18;;
45065;SDS011;30830;53.704;10.004;2022-09-24T05:06:49;9.27;;;8.15;;
45065;SDS011;30830;53.704;10.004;2022-09-24T05:09:15;11.15;;;8.95;;
45065;SDS011;30830;53.704;10.004;2022-09-24T05:11:40;10.23;;;8.90;;
45065;SDS011;30830;53.704;10.004;2022-09-24T05:14:06;10.68;;;8.60;;
45065;SDS011;30830;53.704;10.004;2022-09-24T05:16:32;12.80;;;9.80;;
45065;SDS011;30830;53.704;10.004;2022-09-24T05:18:58;12.73;;;10.63;;
45065;SDS011;30830;53.704;10.004;2022-09-24T05:21:23;11.85;;;10.13;;
45065;SDS011;30830;53.704;10.004;2022-09-24T05:23:49;11.07;;;9.95;;
45065;SDS011;30830;53.704;10.004;2022-09-24T05:26:14;11.73;;;10.48;;
45065;SDS011;30830;53.704;10.004;2022-09-24T05:28:59;12.20;;;10.45;;
45065;SDS011;30830;53.704;10.004;2022-09-24T05:31:24;14.73;;;11.55;;
45065;SDS011;30830;53.704;10.004;2022-09-24T05:33:50;11.38;;;10.18;;
45065;SDS011;30830;53.704;10.004;2022-09-24T05:36:15;11.10;;;10.00;;
45065;SDS011;30830;53.704;10.004;2022-09-24T05:38:43;16.92;;;10.80;;
45065;SDS011;30830;53.704;10.004;2022-09-24T05:41:08;14.07;;;11.35;;
45065;SDS011;30830;53.704;10.004;2022-09-24T05:43:34;13.95;;;12.45;;
45065;SDS011;30830;53.704;10.004;2022-09-24T05:51:57;13.45;;;12.05;;
45065;SDS011;30830;53.704;10.004;2022-09-24T05:54:22;13.40;;;11.68;;
45065;SDS011;30830;53.704;10.004;2022-09-24T05:56:48;15.50;;;12.02;;
45065;SDS011;30830;53.704;10.004;2022-09-24T05:59:14;14.20;;;11.60;;
45065;SDS011;30830;53.704;10.004;2022-09-24T06:01:39;12.00;;;10.77;;
45065;SDS011;30830;53.704;10.004;2022-09-24T06:04:05;11.95;;;10.75;;
45065;SDS011;30830;53.704;10.004;2022-09-24T06:06:31;12.10;;;10.90;;
45065;SDS011;30830;53.704;10.004;2022-09-24T06:08:56;12.48;;;10.88;;
45065;SDS011;30830;53.704;10.004;2022-09-24T06:11:22;11.90;;;10.75;;
45065;SDS011;30830;53.704;10.004;2022-09-24T06:13:48;12.90;;;10.55;;
45065;SDS011;30830;53.704;10.004;2022-09-24T06:16:15;13.30;;;11.00;;
45065;SDS011;30830;53.704;10.004;2022-09-24T06:18:41;11.80;;;10.70;;
45065;SDS011;30830;53.704;10.004;2022-09-24T06:21:12;13.85;;;11.20;;
45065;SDS011;30830;53.704;10.004;2022-09-24T06:23:39;12.88;;;10.38;;
45065;SDS011;30830;53.704;10.004;2022-09-24T06:26:05;12.52;;;10.90;;
45065;SDS011;30830;53.704;10.004;2022-09-24T06:28:33;11.98;;;10.63;;
45065;SDS011;30830;53.704;10.004;2022-09-24T06:30:59;12.75;;;10.90;;
45065;SDS011;30830;53.704;10.004;2022-09-24T06:33:25;12.30;;;10.25;;
45065;SDS011;30830;53.704;10.004;2022-09-24T06:35:51;12.07;;;10.70;;
45065;SDS011;30830;53.704;10.004;2022-09-24T06:38:17;13.40;;;10.38;;
45065;SDS011;30830;53.704;10.004;2022-09-24T06:40:44;15.48;;;11.57;;
45065;SDS011;30830;53.704;10.004;2022-09-24T06:43:11;12.40;;;10.90;;
45065;SDS011;30830;53.704;10.004;2022-09-24T06:45:37;12.65;;;11.35;;
45065;SDS011;30830;53.704;10.004;2022-09-24T06:48:05;13.93;;;12.10;;
45065;SDS011;30830;53.704;10.004;2022-09-24T06:50:31;14.90;;;11.90;;
45065;SDS011;30830;53.704;10.004;2022-09-24T06:52:58;14.82;;;12.02;;
45065;SDS011;30830;53.704;10.004;2022-09-24T06:55:24;13.70;;;12.05;;
45065;SDS011;30830;53.704;10.004;2022-09-24T06:57:59;11.80;;;10.70;;
45065;SDS011;30830;53.704;10.004;2022-09-24T07:00:26;12.98;;;11.73;;
45065;SDS011;30830;53.704;10.004;2022-09-24T07:02:52;13.20;;;11.75;;
45065;SDS011;30830;53.704;10.004;2022-09-24T07:05:18;14.52;;;11.13;;
45065;SDS011;30830;53.704;10.004;2022-09-24T07:07:43;13.18;;;11.77;;
45065;SDS011;30830;53.704;10.004;2022-09-24T07:10:09;12.45;;;11.15;;
45065;SDS011;30830;53.704;10.004;2022-09-24T07:12:35;12.48;;;11.18;;
45065;SDS011;30830;53.704;10.004;2022-09-24T07:15:00;14.80;;;11.93;;
45065;SDS011;30830;53.704;10.004;2022-09-24T07:17:27;15.13;;;13.52;;
45065;SDS011;30830;53.704;10.004;2022-09-24T07:19:53;14.43;;;12.93;;
45065;SDS011;30830;53.704;10.004;2022-09-24T07:22:19;14.25;;;12.80;;
45065;SDS011;30830;53.704;10.004;2022-09-24T07:24:45;15.18;;;13.65;;
45065;SDS011;30830;53.704;10.004;2022-09-24T07:27:12;15.45;;;13.52;;
45065;SDS011;30830;53.704;10.004;2022-09-24T07:29:38;15.82;;;12.82;;
45065;SDS011;30830;53.704;10.004;2022-09-24T07:32:04;14.70;;;13.10;;
45065;SDS011;30830;53.704;10.004;2022-09-24T07:34:30;15.65;;;13.85;;
45065;SDS011;30830;53.704;10.004;2022-09-24T07:36:56;17.20;;;12.52;;
45065;SDS011;30830;53.704;10.004;2022-09-24T07:39:22;16.05;;;13.50;;
45065;SDS011;30830;53.704;10.004;2022-09-24T07:41:49;19.27;;;15.80;;
45065;SDS011;30830;53.704;10.004;2022-09-24T07:44:16;15.48;;;13.95;;
45065;SDS011;30830;53.704;10.004;2022-09-24T07:46:45;17.85;;;13.60;;
45065;SDS011;30830;53.704;10.004;2022-09-24T07:49:12;14.13;;;12.38;;
45065;SDS011;30830;53.704;10.004;2022-09-24T07:51:37;14.07;;;12.63;;
45065;SDS011;30830;53.704;10.004;2022-09-24T07:54:03;16.92;;;13.13;;
45065;SDS011;30830;53.704;10.004;2022-09-24T07:56:29;15.85;;;14.18;;
45065;SDS011;30830;53.704;10.004;2022-09-24T07:58:56;17.85;;;12.77;;
45065;SDS011;30830;53.704;10.004;2022-09-24T08:01:22;15.80;;;14.20;;
45065;SDS011;30830;53.704;10.004;2022-09-24T08:03:49;17.48;;;14.35;;
45065;SDS011;30830;53.704;10.004;2022-09-24T08:06:16;14.27;;;12.52;;
45065;SDS011;30830;53.704;10.004;2022-09-24T08:08:42;18.48;;;14.77;;
45065;SDS011;30830;53.704;10.004;2022-09-24T08:11:08;14.57;;;13.07;;
45065;SDS011;30830;53.704;10.004;2022-09-24T08:13:36;14.88;;;13.32;;
45065;SDS011;30830;53.704;10.004;2022-09-24T08:16:02;15.07;;;13.18;;
45065;SDS011;30830;53.704;10.004;2022-09-24T08:18:28;16.80;;;13.52;;
45065;SDS011;30830;53.704;10.004;2022-09-24T08:20:55;15.75;;;12.70;;
45065;SDS011;30830;53.704;10.004;2022-09-24T08:23:22;14.80;;;13.15;;
45065;SDS011;30830;53.704;10.004;2022-09-24T08:25:47;12.90;;;11.60;;
45065;SDS011;30830;53.704;10.004;2022-09-24T08:28:13;14.85;;;13.15;;
45065;SDS011;30830;53.704;10.004;2022-09-24T08:30:43;14.65;;;12.05;;
45065;SDS011;30830;53.704;10.004;2022-09-24T08:33:09;14.93;;;13.35;;
45065;SDS011;30830;53.704;10.004;2022-09-24T08:35:35;12.88;;;11.55;;
45065;SDS011;30830;53.704;10.004;2022-09-24T08:38:02;16.08;;;12.45;;
45065;SDS011;30830;53.704;10.004;2022-09-24T08:40:38;13.65;;;11.90;;
45065;SDS011;30830;53.704;10.004;2022-09-24T08:43:17;11.48;;;10.23;;
45065;SDS011;30830;53.704;10.004;2022-09-24T08:46:10;11.93;;;10.52;;
45065;SDS011;30830;53.704;10.004;2022-09-24T08:51:29;13.55;;;12.00;;
45065;SDS011;30830;53.704;10.004;2022-09-24T08:54:06;13.80;;;12.35;;
45065;SDS011;30830;53.704;10.004;2022-09-24T08:56:37;14.18;;;12.63;;
45065;SDS011;30830;53.704;10.004;2022-09-24T09:10:22;16.83;;;13.65;;
45065;SDS011;30830;53.704;10.004;2022-09-24T09:15:32;14.63;;;13.23;;
45065;SDS011;30830;53.704;10.004;2022-09-24T09:18:09;19.95;;;15.23;;
45065;SDS011;30830;53.704;10.004;2022-09-24T09:20:42;16.63;;;14.52;;
45065;SDS011;30830;53.704;10.004;2022-09-24T09:23:19;17.92;;;14.85;;
45065;SDS011;30830;53.704;10.004;2022-09-24T09:25:56;16.95;;;15.07;;
45065;SDS011;30830;53.704;10.004;2022-09-24T09:28:25;17.70;;;15.30;;
45065;SDS011;30830;53.704;10.004;2022-09-24T09:33:52;17.73;;;15.75;;
45065;SDS011;30830;53.704;10.004;2022-09-24T09:36:42;17.02;;;14.95;;
45065;SDS011;30830;53.704;10.004;2022-09-24T09:42:25;16.10;;;14.25;;
45065;SDS011;30830;53.704;10.004;2022-09-24T09:44:58;17.92;;;15.52;;
45065;SDS011;30830;53.704;10.004;2022-09-24T09:50:18;19.80;;;16.08;;
45065;SDS011;30830;53.704;10.004;2022-09-24T09:53:03;16.63;;;14.85;;
45065;SDS011;30830;53.704;10.004;2022-09-24T09:55:31;15.25;;;13.63;;
45065;SDS011;30830;53.704;10.004;2022-09-24T10:00:39;16.48;;;14.77;;
45065;SDS011;30830;53.704;10.004;2022-09-24T10:03:06;16.90;;;14.48;;
45065;SDS011;30830;53.704;10.004;2022-09-24T10:05:52;16.73;;;14.95;;
45065;SDS011;30830;53.704;10.004;2022-09-24T10:08:20;16.35;;;14.65;;
45065;SDS011;30830;53.704;10.004;2022-09-24T10:10:51;18.52;;;15.15;;
45065;SDS011;30830;53.704;10.004;2022-09-24T10:13:21;17.77;;;15.27;;
45065;SDS011;30830;53.704;10.004;2022-09-24T10:15:51;16.17;;;14.50;;
45065;SDS011;30830;53.704;10.004;2022-09-24T10:18:20;15.45;;;13.85;;
45065;SDS011;30830;53.704;10.004;2022-09-24T10:20:52;18.73;;;16.17;;
45065;SDS011;30830;53.704;10.004;2022-09-24T10:23:22;14.23;;;12.82;;
45065;SDS011;30830;53.704;10.004;2022-09-24T10:26:11;15.90;;;13.93;;
45065;SDS011;30830;53.704;10.004;2022-09-24T10:28:40;15.65;;;14.05;;
45065;SDS011;30830;53.704;10.004;2022-09-24T10:31:44;15.93;;;13.60;;
45065;SDS011;30830;53.704;10.004;2022-09-24T10:34:23;17.33;;;15.50;;
45065;SDS011;30830;53.704;10.004;2022-09-24T10:37:01;18.00;;;16.20;;
45065;SDS011;30830;53.704;10.004;2022-09-24T10:39:28;16.63;;;14.30;;
45065;SDS011;30830;53.704;10.004;2022-09-24T10:41:55;16.27;;;14.00;;
45065;SDS011;30830;53.704;10.004;2022-09-24T10:44:22;16.10;;;13.32;;
45065;SDS011;30830;53.704;10.004;2022-09-24T10:55:35;19.73;;;16.45;;
45065;SDS011;30830;53.704;10.004;2022-09-24T11:06:56;22.90;;;19.08;;
45065;SDS011;30830;53.704;10.004;2022-09-24T11:23:29;25.80;;;20.17;;
45065;SDS011;30830;53.704;10.004;2022-09-24T11:26:12;22.40;;;19.02;;
45065;SDS011;30830;53.704;10.004;2022-09-24T11:31:39;21.77;;;17.92;;
45065;SDS011;30830;53.704;10.004;2022-09-24T11:42:36;20.70;;;18.38;;
45065;SDS011;30830;53.704;10.004;2022-09-24T11:50:55;22.65;;;18.48;;
45065;SDS011;30830;53.704;10.004;2022-09-24T11:53:55;21.13;;;18.02;;
45065;SDS011;30830;53.704;10.004;2022-09-24T12:01:37;23.95;;;19.52;;
45065;SDS011;30830;53.704;10.004;2022-09-24T12:04:13;25.38;;;20.23;;
45065;SDS011;30830;53.704;10.004;2022-09-24T12:06:47;25.33;;;18.52;;
45065;SDS011;30830;53.704;10.004;2022-09-24T12:09:22;23.05;;;18.98;;
45065;SDS011;30830;53.704;10.004;2022-09-24T12:12:03;26.02;;;20.30;;
45065;SDS011;30830;53.704;10.004;2022-09-24T12:14:51;17.65;;;15.80;;
45065;SDS011;30830;53.704;10.004;2022-09-24T12:20:30;19.80;;;17.58;;
45065;SDS011;30830;53.704;10.004;2022-09-24T12:23:01;22.80;;;18.58;;
45065;SDS011;30830;53.704;10.004;2022-09-24T12:25:36;24.55;;;19.17;;
45065;SDS011;30830;53.704;10.004;2022-09-24T12:28:05;21.90;;;17.50;;
45065;SDS011;30830;53.704;10.004;2022-09-24T12:30:44;22.17;;;18.58;;
45065;SDS011;30830;53.704;10.004;2022-09-24T12:38:54;23.02;;;18.42;;
45065;SDS011;30830;53.704;10.004;2022-09-24T12:41:36;20.15;;;17.63;;
45065;SDS011;30830;53.704;10.004;2022-09-24T12:44:06;22.20;;;18.50;;
45065;SDS011;30830;53.704;10.004;2022-09-24T12:46:51;23.30;;;17.65;;
45065;SDS011;30830;53.704;10.004;2022-09-24T12:51:57;23.00;;;18.40;;
45065;SDS011;30830;53.704;10.004;2022-09-24T12:54:30;23.52;;;19.85;;
45065;SDS011;30830;53.704;10.004;2022-09-24T12:57:03;24.45;;;17.35;;
45065;SDS011;30830;53.704;10.004;2022-09-24T12:59:56;25.30;;;20.73;;
45065;SDS011;30830;53.704;10.004;2022-09-24T13:02:27;22.50;;;18.95;;
45065;SDS011;30830;53.704;10.004;2022-09-24T13:12:42;19.13;;;16.08;;
45065;SDS011;30830;53.704;10.004;2022-09-24T13:20:34;22.50;;;19.63;;
45065;SDS011;30830;53.704;10.004;2022-09-24T13:25:53;21.67;;;18.73;;
45065;SDS011;30830;53.704;10.004;2022-09-24T13:28:21;27.88;;;19.70;;
45065;SDS011;30830;53.704;10.004;2022-09-24T13:30:57;18.98;;;16.38;;
45065;SDS011;30830;53.704;10.004;2022-09-24T13:33:34;19.63;;;16.30;;
45065;SDS011;30830;53.704;10.004;2022-09-24T13:36:14;24.10;;;19.42;;
45065;SDS011;30830;53.704;10.004;2022-09-24T13:41:55;19.00;;;14.93;;
45065;SDS011;30830;53.704;10.004;2022-09-24T13:44:38;18.60;;;16.10;;
45065;SDS011;30830;53.704;10.004;2022-09-24T13:47:18;21.23;;;19.00;;
45065;SDS011;30830;53.704;10.004;2022-09-24T13:49:53;20.63;;;18.30;;
45065;SDS011;30830;53.704;10.004;2022-09-24T13:52:32;19.52;;;16.90;;
45065;SDS011;30830;53.704;10.004;2022-09-24T13:57:59;20.10;;;16.13;;
45065;SDS011;30830;53.704;10.004;2022-09-24T14:00:26;21.70;;;18.45;;
45065;SDS011;30830;53.704;10.004;2022-09-24T14:02:57;19.65;;;16.85;;
45065;SDS011;30830;53.704;10.004;2022-09-24T14:05:27;24.63;;;19.10;;
45065;SDS011;30830;53.704;10.004;2022-09-24T14:08:02;21.65;;;19.20;;
45065;SDS011;30830;53.704;10.004;2022-09-24T14:10:28;20.30;;;17.88;;
45065;SDS011;30830;53.704;10.004;2022-09-24T14:12:58;22.85;;;17.00;;
45065;SDS011;30830;53.704;10.004;2022-09-24T14:15:34;19.52;;;15.40;;
45065;SDS011;30830;53.704;10.004;2022-09-24T14:18:00;18.65;;;16.65;;
45065;SDS011;30830;53.704;10.004;2022-09-24T14:20:27;17.90;;;16.00;;
45065;SDS011;30830;53.704;10.004;2022-09-24T14:22:57;22.38;;;17.85;;
45065;SDS011;30830;53.704;10.004;2022-09-24T14:25:27;21.77;;;18.65;;
45065;SDS011;30830;53.704;10.004;2022-09-24T14:27:54;20.75;;;17.70;;
45065;SDS011;30830;53.704;10.004;2022-09-24T14:30:24;21.20;;;17.77;;
45065;SDS011;30830;53.704;10.004;2022-09-24T14:32:53;21.67;;;17.67;;
45065;SDS011;30830;53.704;10.004;2022-09-24T14:35:31;21.38;;;17.85;;
45065;SDS011;30830;53.704;10.004;2022-09-24T14:38:02;20.63;;;17.33;;
45065;SDS011;30830;53.704;10.004;2022-09-24T14:41:12;20.42;;;16.08;;
45065;SDS011;30830;53.704;10.004;2022-09-24T14:43:35;19.15;;;17.13;;
45065;SDS011;30830;53.704;10.004;2022-09-24T14:46:17;18.65;;;16.65;;
45065;SDS011;30830;53.704;10.004;2022-09-24T14:48:45;20.35;;;17.23;;
45065;SDS011;30830;53.704;10.004;2022-09-24T14:51:22;22.15;;;17.25;;
45065;SDS011;30830;53.704;10.004;2022-09-24T14:53:58;17.30;;;15.35;;
45065;SDS011;30830;53.704;10.004;2022-09-24T14:56:26;20.10;;;17.75;;
45065;SDS011;30830;53.704;10.004;2022-09-24T14:58:57;20.00;;;15.90;;
45065;SDS011;30830;53.704;10.004;2022-09-24T15:01:28;20.48;;;17.05;;
45065;SDS011;30830;53.704;10.004;2022-09-24T15:03:56;16.08;;;14.48;;
45065;SDS011;30830;53.704;10.004;2022-09-24T15:06:29;19.05;;;17.00;;
45065;SDS011;30830;53.704;10.004;2022-09-24T15:09:04;18.98;;;17.08;;
45065;SDS011;30830;53.704;10.004;2022-09-24T15:11:47;20.38;;;18.17;;
45065;SDS011;30830;53.704;10.004;2022-09-24T15:16:43;22.90;;;19.17;;
45065;SDS011;30830;53.704;10.004;2022-09-24T15:19:13;24.55;;;19.90;;
45065;SDS011;30830;53.704;10.004;2022-09-24T15:21:43;20.40;;;18.23;;
45065;SDS011;30830;53.704;10.004;2022-09-24T15:24:15;20.00;;;17.17;;
45065;SDS011;30830;53.704;10.004;2022-09-24T15:26:43;19.63;;;17.30;;
45065;SDS011;30830;53.704;10.004;2022-09-24T15:29:16;17.98;;;16.08;;
45065;SDS011;30830;53.704;10.004;2022-09-24T15:31:45;17.25;;;14.98;;
45065;SDS011;30830;53.704;10.004;2022-09-24T15:34:11;19.35;;;16.52;;
45065;SDS011;30830;53.704;10.004;2022-09-24T15:36:36;18.95;;;14.98;;
45065;SDS011;30830;53.704;10.004;2022-09-24T15:39:02;18.60;;;16.50;;
45065;SDS011;30830;53.704;10.004;2022-09-24T15:41:28;20.90;;;18.67;;
45065;SDS011;30830;53.704;10.004;2022-09-24T15:43:55;18.48;;;16.58;;
45065;SDS011;30830;53.704;10.004;2022-09-24T15:46:22;20.35;;;18.10;;
45065;SDS011;30830;53.704;10.004;2022-09-24T15:48:48;22.23;;;18.98;;
45065;SDS011;30830;53.704;10.004;2022-09-24T15:51:14;19.02;;;15.50;;
45065;SDS011;30830;53.704;10.004;2022-09-24T15:53:43;18.70;;;16.65;;
45065;SDS011;30830;53.704;10.004;2022-09-24T15:56:08;20.67;;;18.55;;
45065;SDS011;30830;53.704;10.004;2022-09-24T15:58:35;19.52;;;17.40;;
45065;SDS011;30830;53.704;10.004;2022-09-24T16:01:01;18.13;;;16.13;;
45065;SDS011;30830;53.704;10.004;2022-09-24T16:03:27;22.50;;;17.83;;
45065;SDS011;30830;53.704;10.004;2022-09-24T16:05:54;22.23;;;18.58;;
45065;SDS011;30830;53.704;10.004;2022-09-24T16:08:21;21.02;;;18.75;;
45065;SDS011;30830;53.704;10.004;2022-09-24T16:10:47;21.42;;;18.55;;
45065;SDS011;30830;53.704;10.004;2022-09-24T16:13:14;18.73;;;16.52;;
45065;SDS011;30830;53.704;10.004;2022-09-24T16:15:40;17.38;;;15.60;;
45065;SDS011;30830;53.704;10.004;2022-09-24T16:18:06;18.27;;;16.33;;
45065;SDS011;30830;53.704;10.004;2022-09-24T16:20:37;18.40;;;16.33;;
45065;SDS011;30830;53.704;10.004;2022-09-24T16:23:03;20.40;;;18.10;;
45065;SDS011;30830;53.704;10.004;2022-09-24T16:25:29;19.95;;;17.75;;
45065;SDS011;30830;53.704;10.004;2022-09-24T16:27:56;19.98;;;17.90;;
45065;SDS011;30830;53.704;10.004;2022-09-24T16:30:22;17.45;;;15.65;;
45065;SDS011;30830;53.704;10.004;2022-09-24T16:32:48;18.85;;;15.88;;
45065;SDS011;30830;53.704;10.004;2022-09-24T16:35:14;17.65;;;15.82;;
45065;SDS011;30830;53.704;10.004;2022-09-24T16:37:40;17.95;;;14.20;;
45065;SDS011;30830;53.704;10.004;2022-09-24T16:40:06;21.25;;;16.40;;
45065;SDS011;30830;53.704;10.004;2022-09-24T16:42:32;25.73;;;17.85;;
45065;SDS011;30830;53.704;10.004;2022-09-24T16:44:58;19.42;;;17.27;;
45065;SDS011;30830;53.704;10.004;2022-09-24T16:47:24;17.20;;;15.40;;
45065;SDS011;30830;53.704;10.004;2022-09-24T16:49:50;21.33;;;18.02;;
45065;SDS011;30830;53.704;10.004;2022-09-24T16:52:15;22.05;;;17.85;;
45065;SDS011;30830;53.704;10.004;2022-09-24T16:54:41;18.02;;;16.02;;